Aérodrome :
LOGIN :

S'inscrire | Disclaimer

   EN    FR    IT 

 










Légende :    VFR   VFR Marginal   IFR   IFR Intensif   IFR Très Intensif
Visi : 
Plafond : 
>= 8 km
>= 3000ft
5 à 8 km
1000 à 3000 ft
1500m à 5 km
500 à 1000 ft
800 à 1500m
200 à 500 ft
< 800m
< 200 ft
Symboles :   Orages  Brouillard  Fortes neiges  Fortes précipitations  Vent > 20 kt
SIGMETs :   Divers  Orages  Givrage  Turbulence  Onde Orograph.  Cendres Volcan.







- Altitude de l'aérodrome : 1411 ft
- Code IATA : SZG


LOWS - Salzburg

DERNIER METAR :
  • 221220Z 31006KT 280V350 9999 FEW045 13/05 Q1026 NOSIG

METARs EXPIRÉS :
  • 221150Z 31006KT 260V350 9999 FEW045 13/05 Q1026 NOSIG
  • 221120Z VRB04KT CAVOK 12/04 Q1026 NOSIG
  • 221050Z 30005KT 260V350 CAVOK 11/03 Q1026 NOSIG
  • 221020Z VRB02KT CAVOK 12/02 Q1026 NOSIG
  • 220950Z 23003KT 160V320 CAVOK 11/02 Q1027 NOSIG

TAF TAF LOWS
Valide du 22 à 12h jusqu'au 23 à 12h UTC


221115Z 2212/2312 34005KT CAVOK TX13/2214Z TN07/2305Z
BECMG 2217/2219 15005KT 9999 SCT050
BECMG 2301/2303 BKN050
BECMG 2307/2309 34005KT 9999 SCT050 BKN300
Pas de NOTAMs connus pour ce terrain.



MET'MAP, la Météo Aéronautique d'un coup d'oeil ! - Copyright ORBIFLY Décembre 2007 - Disclaimer

ORBIFLY MET'MAP TEAM :

Programmation & Développement : Alexandra Zaïnal
Conception & Développement : Baudouin d'Aumeries
Co-Programmation & Développement : Marc-Olivier Méhu
Soutien technique & logistique : Manuel Goepfert

Contact : metmap@orbifly.com




SOURCES & CREDITS :

   NOAA